Time;durP1;ratioP1;P1;durP2;ratioP2;P2;SDS_P1;SDS_P2;PMS_P1;PMS_P2;Temp;Humidity;BMP_temperature;BMP_pressure;BME280_temperature;BME280_humidity;BME280_pressure;Samples;Min_cycle;Max_cycle;Signal;HPM_P1;HPM_P2
2024/03/14 00:01:22;;;;;;;4.97;3.87;;;;;;;;;;5074416;28;20244;-87
2024/03/14 00:03:50;;;;;;;7.50;4.03;;;;;;;;;;5072986;28;20664;-86
2024/03/14 00:06:18;;;;;;;5.43;3.90;;;;;;;;;;5073724;28;20289;-86
2024/03/14 00:08:46;;;;;;;6.33;3.80;;;;;;;;;;5074038;28;20256;-86
2024/03/14 00:11:13;;;;;;;6.03;3.77;;;;;;;;;;5073758;28;20190;-86
2024/03/14 00:13:42;;;;;;;6.23;4.33;;;;;;;;;;5088424;28;20201;-85
2024/03/14 00:16:10;;;;;;;7.57;4.30;;;;;;;;;;5094289;28;20201;-86
2024/03/14 00:18:38;;;;;;;6.07;4.23;;;;;;;;;;5095113;28;20275;-86
2024/03/14 00:21:09;;;;;;;5.53;3.93;;;;;;;;;;5096700;28;20613;-85
2024/03/14 00:23:37;;;;;;;5.60;3.60;;;;;;;;;;5100989;28;20198;-86
2024/03/14 00:26:08;;;;;;;4.40;3.77;;;;;;;;;;5100808;28;20197;-86
2024/03/14 00:28:36;;;;;;;5.77;4.07;;;;;;;;;;5101074;28;20724;-86
2024/03/14 00:31:04;;;;;;;5.40;4.20;;;;;;;;;;5100817;28;20193;-86
2024/03/14 00:33:32;;;;;;;6.23;4.00;;;;;;;;;;5101160;28;20193;-86
2024/03/14 00:35:59;;;;;;;5.10;3.47;;;;;;;;;;5100925;28;20568;-85
2024/03/14 00:38:26;;;;;;;7.17;3.83;;;;;;;;;;5099934;28;20211;-85
2024/03/14 00:40:54;;;;;;;5.87;4.20;;;;;;;;;;5100507;28;20276;-86
2024/03/14 00:43:21;;;;;;;5.40;4.07;;;;;;;;;;5100664;28;20282;-85
2024/03/14 00:45:48;;;;;;;6.50;4.33;;;;;;;;;;5100457;28;20284;-85
2024/03/14 00:48:16;;;;;;;5.37;4.13;;;;;;;;;;5100297;28;20597;-85
2024/03/14 00:50:44;;;;;;;6.73;4.27;;;;;;;;;;5100603;28;20618;-86
2024/03/14 00:53:11;;;;;;;8.07;4.47;;;;;;;;;;5100630;28;20198;-86
2024/03/14 00:55:41;;;;;;;4.73;4.00;;;;;;;;;;5096673;28;20238;-85
2024/03/14 00:58:10;;;;;;;6.93;3.80;;;;;;;;;;5096774;28;20251;-85
2024/03/14 01:00:38;;;;;;;4.60;3.70;;;;;;;;;;5096731;28;20297;-84
2024/03/14 01:03:08;;;;;;;6.03;3.93;;;;;;;;;;5096417;28;20221;-85
2024/03/14 01:05:37;;;;;;;5.37;3.60;;;;;;;;;;5096682;28;20199;-85
2024/03/14 01:08:05;;;;;;;6.70;3.60;;;;;;;;;;5096092;28;20218;-86
2024/03/14 01:10:33;;;;;;;5.50;3.67;;;;;;;;;;5096641;28;20201;-85
2024/03/14 01:13:02;;;;;;;6.67;3.37;;;;;;;;;;5087907;28;20191;-87
2024/03/14 01:15:30;;;;;;;5.77;3.17;;;;;;;;;;5076498;28;20199;-86
2024/03/14 01:17:57;;;;;;;4.07;3.30;;;;;;;;;;5076211;28;20195;-86
2024/03/14 01:20:25;;;;;;;4.20;3.10;;;;;;;;;;5076462;28;20187;-85
2024/03/14 01:22:52;;;;;;;3.67;3.10;;;;;;;;;;5073101;28;20233;-86
2024/03/14 01:25:20;;;;;;;4.67;3.00;;;;;;;;;;5056468;28;20232;-86
2024/03/14 01:27:49;;;;;;;5.23;3.17;;;;;;;;;;5056265;28;20662;-85
2024/03/14 01:30:16;;;;;;;4.87;3.00;;;;;;;;;;5056440;28;20192;-85
2024/03/14 01:32:43;;;;;;;4.50;3.17;;;;;;;;;;5054519;28;20287;-86
2024/03/14 01:35:11;;;;;;;5.73;3.27;;;;;;;;;;5053494;28;20626;-85
2024/03/14 01:37:39;;;;;;;5.93;3.13;;;;;;;;;;5052977;28;20231;-85
2024/03/14 01:40:07;;;;;;;6.37;3.50;;;;;;;;;;5053040;28;20662;-85
2024/03/14 01:42:35;;;;;;;5.93;3.33;;;;;;;;;;5053673;28;20288;-86
2024/03/14 01:45:04;;;;;;;4.37;3.27;;;;;;;;;;5052856;28;20230;-86
2024/03/14 01:47:32;;;;;;;4.10;3.20;;;;;;;;;;5036760;28;20192;-85
2024/03/14 01:50:01;;;;;;;5.13;3.30;;;;;;;;;;5052598;28;20293;-85
2024/03/14 01:52:28;;;;;;;4.83;3.60;;;;;;;;;;5053016;28;20295;-85
2024/03/14 01:54:56;;;;;;;5.23;3.80;;;;;;;;;;5052675;28;20610;-85
2024/03/14 01:57:25;;;;;;;5.83;3.80;;;;;;;;;;5052725;28;20203;-84
2024/03/14 01:59:53;;;;;;;4.37;3.50;;;;;;;;;;5052830;28;20195;-85
2024/03/14 02:02:23;;;;;;;6.03;4.00;;;;;;;;;;5052311;28;20208;-86
2024/03/14 02:04:52;;;;;;;7.03;3.97;;;;;;;;;;5052242;28;20199;-87
2024/03/14 02:07:19;;;;;;;6.43;4.27;;;;;;;;;;5052626;28;20200;-85
2024/03/14 02:09:47;;;;;;;6.90;4.37;;;;;;;;;;5052907;28;20801;-87
2024/03/14 02:12:14;;;;;;;6.67;4.53;;;;;;;;;;5054803;28;20282;-85
2024/03/14 02:14:41;;;;;;;7.17;4.53;;;;;;;;;;5072704;28;20300;-85
2024/03/14 02:17:09;;;;;;;6.00;4.37;;;;;;;;;;5072343;28;20226;-85
2024/03/14 02:19:38;;;;;;;7.00;4.77;;;;;;;;;;5072213;28;20207;-85
2024/03/14 02:22:05;;;;;;;6.47;4.37;;;;;;;;;;5072600;28;20226;-85
2024/03/14 02:24:33;;;;;;;6.70;4.70;;;;;;;;;;5072658;28;20641;-85
2024/03/14 02:27:06;;;;;;;5.20;4.50;;;;;;;;;;5072579;28;20250;-86
2024/03/14 02:29:33;;;;;;;7.93;4.70;;;;;;;;;;5072575;28;20238;-86
2024/03/14 02:32:01;;;;;;;6.20;4.50;;;;;;;;;;5071735;28;20748;-86
2024/03/14 02:34:28;;;;;;;5.90;4.80;;;;;;;;;;5071985;28;20195;-86
2024/03/14 02:36:56;;;;;;;7.30;5.07;;;;;;;;;;5072074;28;20653;-85
2024/03/14 02:39:23;;;;;;;7.10;5.40;;;;;;;;;;5071704;28;20758;-85
2024/03/14 02:41:51;;;;;;;8.33;5.20;;;;;;;;;;5072028;28;20273;-85
2024/03/14 02:44:20;;;;;;;6.87;4.70;;;;;;;;;;5071689;28;20214;-86
2024/03/14 02:46:50;;;;;;;6.90;4.87;;;;;;;;;;5072024;28;20202;-84
2024/03/14 02:49:18;;;;;;;7.20;5.30;;;;;;;;;;5068158;28;20257;-84
2024/03/14 02:51:46;;;;;;;6.80;5.40;;;;;;;;;;5062873;28;20212;-85
2024/03/14 02:54:15;;;;;;;6.73;5.20;;;;;;;;;;5054396;28;20223;-84
2024/03/14 02:56:42;;;;;;;8.23;5.53;;;;;;;;;;5055377;28;20195;-85
2024/03/14 02:59:10;;;;;;;7.90;5.27;;;;;;;;;;5055099;28;20227;-86
2024/03/14 03:01:38;;;;;;;9.27;5.50;;;;;;;;;;5055107;28;20191;-85
2024/03/14 03:04:06;;;;;;;7.33;4.87;;;;;;;;;;5055131;28;20290;-84
2024/03/14 03:06:34;;;;;;;7.27;5.50;;;;;;;;;;5054948;28;20245;-85
2024/03/14 03:09:04;;;;;;;10.23;5.63;;;;;;;;;;5054802;28;20222;-85
2024/03/14 03:11:33;;;;;;;7.60;5.57;;;;;;;;;;5055347;28;20211;-85
2024/03/14 03:14:00;;;;;;;7.07;5.60;;;;;;;;;;5089018;28;20202;-84
2024/03/14 03:16:28;;;;;;;11.20;5.83;;;;;;;;;;5095214;28;20280;-86
2024/03/14 03:18:55;;;;;;;7.83;5.50;;;;;;;;;;5094831;28;20197;-85
2024/03/14 03:21:23;;;;;;;8.93;6.07;;;;;;;;;;5094978;28;20285;-85
2024/03/14 03:23:51;;;;;;;6.70;5.00;;;;;;;;;;5095184;28;20201;-85
2024/03/14 03:26:19;;;;;;;6.90;5.60;;;;;;;;;;5094892;28;20225;-84
2024/03/14 03:28:47;;;;;;;7.53;5.73;;;;;;;;;;5094849;28;20228;-85
2024/03/14 03:31:13;;;;;;;7.57;5.20;;;;;;;;;;5094984;28;20194;-85
2024/03/14 03:33:42;;;;;;;9.00;5.50;;;;;;;;;;5094750;28;20286;-85
2024/03/14 03:36:09;;;;;;;7.57;5.77;;;;;;;;;;5094711;28;20656;-85
2024/03/14 03:38:38;;;;;;;9.27;5.47;;;;;;;;;;5095048;28;20201;-85
2024/03/14 03:41:04;;;;;;;7.07;5.10;;;;;;;;;;5094951;28;20204;-85
2024/03/14 03:43:32;;;;;;;8.63;5.40;;;;;;;;;;5094964;28;20201;-85
2024/03/14 03:45:59;;;;;;;8.00;4.90;;;;;;;;;;5094734;28;20194;-85
2024/03/14 03:48:25;;;;;;;7.90;5.77;;;;;;;;;;5093759;28;20284;-85
2024/03/14 03:50:53;;;;;;;6.20;5.10;;;;;;;;;;5094380;28;20229;-85
2024/03/14 03:53:20;;;;;;;8.07;5.40;;;;;;;;;;5094312;28;20714;-86
2024/03/14 03:55:49;;;;;;;7.53;5.20;;;;;;;;;;5093496;28;20704;-86
2024/03/14 03:58:15;;;;;;;8.17;5.53;;;;;;;;;;5094738;28;20729;-85
2024/03/14 04:00:44;;;;;;;7.17;5.07;;;;;;;;;;5077096;28;20211;-86
2024/03/14 04:03:11;;;;;;;11.93;5.70;;;;;;;;;;5093853;28;20251;-85
2024/03/14 04:05:39;;;;;;;8.77;5.73;;;;;;;;;;5094486;28;20209;-86
2024/03/14 04:08:05;;;;;;;7.80;5.33;;;;;;;;;;5094069;28;20194;-85
2024/03/14 04:10:33;;;;;;;6.90;5.27;;;;;;;;;;5093944;28;20307;-86
2024/03/14 04:13:01;;;;;;;10.03;5.33;;;;;;;;;;5094467;28;20198;-87
2024/03/14 04:15:30;;;;;;;8.47;5.50;;;;;;;;;;5093986;28;20197;-85
2024/03/14 04:17:57;;;;;;;7.50;5.03;;;;;;;;;;5094070;28;20657;-85
2024/03/14 04:20:27;;;;;;;8.83;5.40;;;;;;;;;;5094135;28;20225;-86
2024/03/14 04:22:54;;;;;;;8.27;5.50;;;;;;;;;;5094954;28;20209;-85
2024/03/14 04:25:21;;;;;;;6.73;5.33;;;;;;;;;;5093700;28;20281;-85
2024/03/14 04:27:51;;;;;;;6.57;5.07;;;;;;;;;;5094306;28;20284;-86
2024/03/14 04:30:23;;;;;;;6.07;4.63;;;;;;;;;;5094079;28;20327;-86
2024/03/14 04:32:50;;;;;;;8.63;4.90;;;;;;;;;;5094568;28;20612;-86
2024/03/14 04:35:18;;;;;;;6.63;5.17;;;;;;;;;;5094137;28;20285;-86
2024/03/14 04:37:49;;;;;;;6.97;5.50;;;;;;;;;;5094649;28;20219;-85
2024/03/14 04:40:19;;;;;;;9.10;5.40;;;;;;;;;;5095078;28;20202;-85
2024/03/14 04:42:46;;;;;;;7.33;5.47;;;;;;;;;;5094242;28;20190;-85
2024/03/14 04:45:17;;;;;;;11.37;5.63;;;;;;;;;;5093412;28;20300;-85
2024/03/14 04:47:45;;;;;;;8.70;5.13;;;;;;;;;;5094096;28;20247;-86
2024/03/14 04:50:13;;;;;;;9.10;5.30;;;;;;;;;;5093759;28;20715;-85
2024/03/14 04:52:40;;;;;;;10.00;5.40;;;;;;;;;;5094317;28;20249;-85
2024/03/14 04:55:09;;;;;;;7.80;5.27;;;;;;;;;;5073375;28;20226;-84
2024/03/14 04:57:36;;;;;;;11.97;5.53;;;;;;;;;;5090288;28;20191;-85
2024/03/14 05:00:11;;;;;;;6.40;5.30;;;;;;;;;;5089672;28;20653;-86
2024/03/14 05:02:38;;;;;;;7.27;5.20;;;;;;;;;;5090526;28;20193;-86
2024/03/14 05:05:08;;;;;;;10.47;5.73;;;;;;;;;;5090132;28;20619;-86
2024/03/14 05:07:35;;;;;;;6.93;4.83;;;;;;;;;;5090416;28;20605;-85
2024/03/14 05:10:03;;;;;;;8.37;5.40;;;;;;;;;;5093908;28;20518;-85
2024/03/14 05:12:30;;;;;;;8.30;5.13;;;;;;;;;;5089391;28;20191;-85
2024/03/14 05:14:57;;;;;;;6.60;5.13;;;;;;;;;;5073159;28;20289;-84
2024/03/14 05:17:25;;;;;;;8.10;5.57;;;;;;;;;;5073482;28;20287;-85
2024/03/14 05:19:52;;;;;;;7.90;5.50;;;;;;;;;;5073162;28;20195;-85
2024/03/14 05:22:20;;;;;;;7.10;5.50;;;;;;;;;;5073507;28;20724;-86
2024/03/14 05:24:47;;;;;;;8.63;5.80;;;;;;;;;;5073338;28;20317;-86
2024/03/14 05:27:14;;;;;;;9.93;6.20;;;;;;;;;;5072921;28;20238;-85
2024/03/14 05:29:42;;;;;;;9.50;5.33;;;;;;;;;;5073500;28;20672;-84
2024/03/14 05:32:11;;;;;;;6.13;5.27;;;;;;;;;;5056608;28;20196;-85
2024/03/14 05:34:39;;;;;;;8.07;5.60;;;;;;;;;;5072914;28;20199;-84
2024/03/14 05:37:08;;;;;;;9.37;5.57;;;;;;;;;;5072882;28;20575;-85
2024/03/14 05:39:36;;;;;;;7.43;5.20;;;;;;;;;;5073075;28;20209;-86
2024/03/14 05:42:04;;;;;;;8.60;5.73;;;;;;;;;;5073565;28;20195;-86
2024/03/14 05:44:31;;;;;;;9.63;5.97;;;;;;;;;;5072660;28;20237;-85
2024/03/14 05:46:58;;;;;;;8.80;5.13;;;;;;;;;;5073501;28;20267;-85
2024/03/14 05:49:26;;;;;;;7.63;5.73;;;;;;;;;;5072977;28;20253;-85
2024/03/14 05:51:53;;;;;;;7.40;5.50;;;;;;;;;;5073104;28;20289;-85
2024/03/14 05:54:20;;;;;;;8.93;6.03;;;;;;;;;;5073061;28;20261;-86
2024/03/14 05:56:47;;;;;;;9.10;5.63;;;;;;;;;;5072701;28;20293;-84
2024/03/14 05:59:16;;;;;;;7.87;5.40;;;;;;;;;;5056570;28;20203;-85
2024/03/14 06:01:44;;;;;;;8.77;5.80;;;;;;;;;;5073023;28;20910;-86
2024/03/14 06:04:11;;;;;;;8.03;5.63;;;;;;;;;;5072624;28;20199;-85
2024/03/14 06:06:39;;;;;;;7.63;5.80;;;;;;;;;;5072402;28;20242;-86
2024/03/14 06:09:06;;;;;;;9.23;5.70;;;;;;;;;;5072753;28;20275;-85
2024/03/14 06:11:34;;;;;;;8.57;6.10;;;;;;;;;;5072322;28;20229;-86
2024/03/14 06:14:03;;;;;;;7.73;5.77;;;;;;;;;;5055492;28;20200;-84
2024/03/14 06:16:31;;;;;;;9.30;5.47;;;;;;;;;;5052143;28;20195;-84
2024/03/14 06:18:59;;;;;;;9.60;6.00;;;;;;;;;;5051719;28;20196;-84
2024/03/14 06:21:26;;;;;;;9.13;6.40;;;;;;;;;;5052110;28;20207;-83
2024/03/14 06:23:55;;;;;;;11.37;6.70;;;;;;;;;;5051862;28;20282;-84
2024/03/14 06:26:23;;;;;;;10.13;6.90;;;;;;;;;;5051761;28;20689;-84
2024/03/14 06:28:54;;;;;;;10.57;6.87;;;;;;;;;;5051699;28;20200;-84
2024/03/14 06:31:21;;;;;;;11.80;7.00;;;;;;;;;;5051778;28;20231;-83
2024/03/14 06:33:50;;;;;;;11.67;7.07;;;;;;;;;;5051567;28;20294;-82
2024/03/14 06:36:18;;;;;;;11.17;7.03;;;;;;;;;;5051362;28;20203;-84
2024/03/14 06:38:46;;;;;;;8.77;6.77;;;;;;;;;;5051490;28;20661;-83
2024/03/14 06:41:15;;;;;;;27.43;17.10;;;;;;;;;;5051026;28;20277;-82
2024/03/14 06:43:42;;;;;;;128.50;55.97;;;;;;;;;;5051533;28;20228;-83
2024/03/14 06:46:12;;;;;;;90.07;41.13;;;;;;;;;;5051379;28;20202;-83
2024/03/14 06:48:39;;;;;;;56.40;30.90;;;;;;;;;;5051405;28;20192;-83
2024/03/14 06:51:07;;;;;;;23.20;15.27;;;;;;;;;;5051127;28;20228;-83
2024/03/14 06:53:34;;;;;;;36.87;23.73;;;;;;;;;;5051474;28;20286;-84
2024/03/14 06:56:08;;;;;;;17.50;13.10;;;;;;;;;;5051091;28;20263;-83
2024/03/14 06:58:38;;;;;;;10.37;6.80;;;;;;;;;;5051838;28;20572;-84
2024/03/14 07:01:06;;;;;;;14.20;11.23;;;;;;;;;;5051096;28;20206;-84
2024/03/14 07:03:33;;;;;;;13.87;11.87;;;;;;;;;;5050987;28;20207;-84
2024/03/14 07:06:00;;;;;;;13.53;10.93;;;;;;;;;;5051203;28;20278;-83
2024/03/14 07:08:28;;;;;;;30.07;21.67;;;;;;;;;;5050891;28;20286;-83
2024/03/14 07:10:55;;;;;;;55.30;43.60;;;;;;;;;;5050622;28;20318;-83
2024/03/14 07:13:23;;;;;;;38.00;27.67;;;;;;;;;;5074087;28;20321;-83
2024/03/14 07:15:51;;;;;;;22.87;15.30;;;;;;;;;;5091220;28;20194;-83
2024/03/14 07:18:18;;;;;;;40.10;25.67;;;;;;;;;;5091456;28;20767;-85
2024/03/14 07:20:45;;;;;;;18.33;11.73;;;;;;;;;;5074513;28;20660;-84
2024/03/14 07:23:14;;;;;;;15.97;9.73;;;;;;;;;;5090861;28;20672;-84
2024/03/14 07:25:41;;;;;;;10.43;8.03;;;;;;;;;;5091205;28;20222;-83
2024/03/14 07:28:09;;;;;;;9.17;6.30;;;;;;;;;;5090567;28;20676;-84
2024/03/14 07:30:36;;;;;;;8.67;6.47;;;;;;;;;;5090183;28;20314;-83
2024/03/14 07:33:04;;;;;;;6.97;5.10;;;;;;;;;;5091088;28;20229;-84
2024/03/14 07:35:34;;;;;;;6.73;5.70;;;;;;;;;;5091468;28;20289;-83
2024/03/14 07:38:04;;;;;;;7.57;5.37;;;;;;;;;;5090652;28;20568;-83
2024/03/14 07:40:33;;;;;;;8.27;5.37;;;;;;;;;;5090756;28;20195;-83
2024/03/14 07:43:01;;;;;;;7.27;5.30;;;;;;;;;;5091153;28;20190;-84
2024/03/14 07:45:29;;;;;;;11.60;5.30;;;;;;;;;;5090776;28;20237;-82
2024/03/14 07:47:56;;;;;;;6.27;5.00;;;;;;;;;;5090607;28;20285;-84
2024/03/14 07:50:23;;;;;;;7.70;4.90;;;;;;;;;;5090753;28;20253;-85
2024/03/14 07:52:51;;;;;;;6.57;4.83;;;;;;;;;;5090798;28;20191;-85
2024/03/14 07:55:18;;;;;;;6.43;4.37;;;;;;;;;;5090693;28;20776;-84
2024/03/14 07:57:46;;;;;;;7.00;4.47;;;;;;;;;;5091246;28;20222;-83
2024/03/14 08:00:15;;;;;;;6.90;4.90;;;;;;;;;;5090886;28;20198;-83
2024/03/14 08:02:42;;;;;;;6.70;3.90;;;;;;;;;;5090447;28;20230;-85
2024/03/14 08:05:11;;;;;;;7.13;4.63;;;;;;;;;;5090335;28;20288;-83
2024/03/14 08:07:38;;;;;;;7.47;4.53;;;;;;;;;;5090671;28;20643;-84
2024/03/14 08:10:08;;;;;;;6.50;4.83;;;;;;;;;;5090344;28;20260;-84
2024/03/14 08:12:35;;;;;;;7.93;4.50;;;;;;;;;;5090745;28;20203;-83
2024/03/14 08:15:11;;;;;;;6.00;4.30;;;;;;;;;;5090592;28;20611;-82
2024/03/14 08:17:40;;;;;;;6.60;4.50;;;;;;;;;;5090310;28;20198;-83
2024/03/14 08:20:09;;;;;;;6.80;4.47;;;;;;;;;;5090705;28;20187;-83
2024/03/14 08:22:36;;;;;;;8.23;4.20;;;;;;;;;;5089632;28;20623;-83
2024/03/14 08:25:15;;;;;;;5.07;3.53;;;;;;;;;;5090579;28;20280;-83
2024/03/14 08:27:43;;;;;;;6.63;4.07;;;;;;;;;;5090570;28;20194;-83
2024/03/14 08:30:11;;;;;;;4.40;3.70;;;;;;;;;;5090472;28;20318;-84
2024/03/14 08:32:38;;;;;;;5.27;3.87;;;;;;;;;;5090283;28;20199;-83
2024/03/14 08:35:06;;;;;;;4.87;3.80;;;;;;;;;;5090448;28;20281;-83
2024/03/14 08:37:33;;;;;;;5.57;3.57;;;;;;;;;;5089873;28;20641;-83
2024/03/14 08:40:05;;;;;;;5.93;3.90;;;;;;;;;;5090208;28;20281;-84
2024/03/14 08:42:32;;;;;;;7.83;3.97;;;;;;;;;;5092402;28;20686;-83
2024/03/14 08:45:00;;;;;;;4.60;3.43;;;;;;;;;;5094461;28;20286;-84
2024/03/14 08:47:28;;;;;;;4.80;4.00;;;;;;;;;;5094332;28;20190;-83
2024/03/14 08:49:55;;;;;;;4.57;3.80;;;;;;;;;;5094030;28;20205;-83
2024/03/14 08:52:26;;;;;;;4.50;3.50;;;;;;;;;;5094266;28;20199;-83
2024/03/14 08:54:53;;;;;;;5.63;3.80;;;;;;;;;;5094360;28;20758;-84
2024/03/14 08:57:25;;;;;;;8.20;3.83;;;;;;;;;;5093931;28;20911;-87
2024/03/14 08:59:53;;;;;;;5.63;4.17;;;;;;;;;;5094599;28;20711;-83
2024/03/14 09:02:22;;;;;;;4.80;3.37;;;;;;;;;;5094484;28;20593;-84
2024/03/14 09:04:51;;;;;;;7.23;3.40;;;;;;;;;;5094041;28;20230;-84
2024/03/14 09:07:18;;;;;;;5.87;3.40;;;;;;;;;;5093708;28;20194;-84
2024/03/14 09:09:46;;;;;;;5.33;3.80;;;;;;;;;;5093756;28;20547;-84
2024/03/14 09:12:22;;;;;;;6.80;4.23;;;;;;;;;;5094300;28;20229;-86
2024/03/14 09:14:50;;;;;;;6.23;4.23;;;;;;;;;;5093755;28;20201;-84
2024/03/14 09:17:17;;;;;;;5.07;3.40;;;;;;;;;;5093131;28;20195;-84
2024/03/14 09:19:45;;;;;;;4.83;4.00;;;;;;;;;;5093873;28;20244;-85
2024/03/14 09:22:13;;;;;;;5.27;3.70;;;;;;;;;;5093961;28;20225;-85
2024/03/14 09:24:40;;;;;;;5.70;4.23;;;;;;;;;;5093383;28;20237;-84
2024/03/14 09:27:07;;;;;;;6.97;3.80;;;;;;;;;;5077454;28;20269;-85
2024/03/14 09:29:35;;;;;;;4.93;3.93;;;;;;;;;;5093648;28;20282;-84
2024/03/14 09:32:03;;;;;;;9.87;4.53;;;;;;;;;;5093426;28;20353;-84
2024/03/14 09:34:29;;;;;;;7.17;3.93;;;;;;;;;;5093628;28;20221;-85
2024/03/14 09:36:57;;;;;;;6.27;4.20;;;;;;;;;;5068597;28;20199;-85
2024/03/14 09:39:35;;;;;;;6.93;4.63;;;;;;;;;;4718262;28;10000548;-83
2024/03/14 09:42:14;;;;;;;6.10;4.40;;;;;;;;;;5058282;28;20237;-84
2024/03/14 09:44:43;;;;;;;8.67;4.70;;;;;;;;;;5049906;28;20204;-85
2024/03/14 09:47:10;;;;;;;6.57;3.43;;;;;;;;;;5049750;28;20326;-85
2024/03/14 09:49:39;;;;;;;4.68;3.65;;;;;;;;;;5049441;28;20211;-86
2024/03/14 09:52:06;;;;;;;6.70;3.78;;;;;;;;;;5049100;28;20231;-84
2024/03/14 09:54:38;;;;;;;4.63;3.53;;;;;;;;;;5048512;28;20267;-84
2024/03/14 09:57:05;;;;;;;4.68;3.40;;;;;;;;;;5049698;28;20200;-85
2024/03/14 09:59:33;;;;;;;5.78;3.80;;;;;;;;;;5049909;28;20306;-84
2024/03/14 10:02:00;;;;;;;4.30;3.45;;;;;;;;;;5049402;28;20196;-85
2024/03/14 10:04:28;;;;;;;5.30;3.55;;;;;;;;;;5048745;28;20306;-85
2024/03/14 10:06:57;;;;;;;5.55;3.95;;;;;;;;;;5049752;28;20808;-83
2024/03/14 10:09:29;;;;;;;5.10;3.63;;;;;;;;;;5049745;28;20231;-85
2024/03/14 10:12:03;;;;;;;4.40;3.63;;;;;;;;;;5049406;28;20263;-86
2024/03/14 10:14:32;;;;;;;4.60;3.60;;;;;;;;;;5065217;28;20203;-86
2024/03/14 10:16:59;;;;;;;5.25;3.70;;;;;;;;;;5049338;28;20246;-85
2024/03/14 10:19:36;;;;;;;6.20;3.88;;;;;;;;;;5049826;28;20196;-85
2024/03/14 10:22:03;;;;;;;5.75;3.85;;;;;;;;;;5049679;28;20596;-85
2024/03/14 10:24:31;;;;;;;6.13;4.05;;;;;;;;;;5049612;28;20523;-85
2024/03/14 10:26:59;;;;;;;7.38;4.28;;;;;;;;;;5049223;28;20203;-86
2024/03/14 10:29:32;;;;;;;5.45;3.53;;;;;;;;;;5049337;28;20646;-85
2024/03/14 10:32:00;;;;;;;5.25;3.70;;;;;;;;;;5049128;28;20247;-84
2024/03/14 10:34:27;;;;;;;4.68;3.60;;;;;;;;;;5048657;28;20204;-83
2024/03/14 10:36:55;;;;;;;3.90;3.33;;;;;;;;;;5048586;28;20200;-85
2024/03/14 10:39:23;;;;;;;4.78;3.55;;;;;;;;;;5054950;28;20214;-85
2024/03/14 10:41:50;;;;;;;5.38;3.95;;;;;;;;;;5068679;28;20214;-86
2024/03/14 10:44:18;;;;;;;5.75;3.72;;;;;;;;;;5068872;28;20295;-86
2024/03/14 10:46:49;;;;;;;6.22;3.72;;;;;;;;;;5068732;28;20555;-85
2024/03/14 10:49:22;;;;;;;5.05;4.00;;;;;;;;;;5068876;28;20278;-85
2024/03/14 10:51:53;;;;;;;5.28;4.20;;;;;;;;;;5068681;28;20346;-85
2024/03/14 10:54:23;;;;;;;5.05;3.88;;;;;;;;;;5068284;28;20281;-85
2024/03/14 10:56:50;;;;;;;5.78;3.75;;;;;;;;;;5068847;28;20203;-85
2024/03/14 10:59:20;;;;;;;6.07;3.45;;;;;;;;;;5068377;28;20210;-85
2024/03/14 11:01:50;;;;;;;5.75;3.53;;;;;;;;;;5068074;28;20207;-84
2024/03/14 11:04:20;;;;;;;8.75;3.95;;;;;;;;;;5068043;28;20658;-85
2024/03/14 11:06:47;;;;;;;5.47;3.50;;;;;;;;;;5065573;28;20207;-84
2024/03/14 11:09:15;;;;;;;4.38;3.00;;;;;;;;;;5064646;28;20673;-84
2024/03/14 11:11:42;;;;;;;3.38;3.03;;;;;;;;;;5067142;28;20215;-84
2024/03/14 11:14:11;;;;;;;4.38;3.20;;;;;;;;;;5068774;28;20195;-85
2024/03/14 11:16:39;;;;;;;4.63;2.95;;;;;;;;;;5071338;28;20195;-85
2024/03/14 11:19:07;;;;;;;5.68;3.25;;;;;;;;;;5059381;28;20196;-83
2024/03/14 11:21:35;;;;;;;5.13;3.38;;;;;;;;;;5066631;28;20195;-84
2024/03/14 11:24:03;;;;;;;4.65;3.28;;;;;;;;;;5054230;28;20757;-84
2024/03/14 11:26:31;;;;;;;4.10;3.03;;;;;;;;;;5070359;28;20713;-85
2024/03/14 11:29:03;;;;;;;6.10;3.17;;;;;;;;;;5064102;28;20277;-85
2024/03/14 11:31:36;;;;;;;4.32;2.97;;;;;;;;;;5061981;28;20229;-84
2024/03/14 11:34:04;;;;;;;4.25;3.00;;;;;;;;;;5071028;28;20278;-84
2024/03/14 11:36:33;;;;;;;3.95;3.05;;;;;;;;;;5070058;28;20282;-83
2024/03/14 11:39:15;;;;;;;4.80;3.15;;;;;;;;;;5054569;28;20198;-84
2024/03/14 11:41:43;;;;;;;5.18;3.42;;;;;;;;;;5070834;28;20195;-84
2024/03/14 11:44:17;;;;;;;6.18;3.40;;;;;;;;;;5070365;28;20218;-84
2024/03/14 11:46:44;;;;;;;4.78;3.08;;;;;;;;;;5070421;28;20195;-85
2024/03/14 11:49:16;;;;;;;4.88;2.83;;;;;;;;;;5070367;28;20764;-83
2024/03/14 11:51:44;;;;;;;3.53;2.83;;;;;;;;;;5070558;28;20253;-84
2024/03/14 11:54:11;;;;;;;4.18;2.70;;;;;;;;;;5072802;28;20679;-84
2024/03/14 11:56:40;;;;;;;3.95;2.60;;;;;;;;;;5074350;28;20582;-84
2024/03/14 11:59:11;;;;;;;4.28;2.95;;;;;;;;;;5074211;28;20675;-84
2024/03/14 12:01:38;;;;;;;4.00;2.95;;;;;;;;;;5074118;28;20193;-84
2024/03/14 12:04:06;;;;;;;3.70;3.08;;;;;;;;;;5074429;28;20289;-84
2024/03/14 12:06:35;;;;;;;3.47;2.85;;;;;;;;;;5074324;28;20240;-84
2024/03/14 12:09:06;;;;;;;4.70;2.83;;;;;;;;;;5074172;28;20205;-83
2024/03/14 12:11:34;;;;;;;5.05;3.13;;;;;;;;;;5074650;28;20831;-84
2024/03/14 12:14:01;;;;;;;4.75;3.00;;;;;;;;;;5090466;28;20202;-84
2024/03/14 12:16:28;;;;;;;4.78;3.30;;;;;;;;;;5093583;28;20285;-84
2024/03/14 12:18:57;;;;;;;5.22;2.88;;;;;;;;;;5094302;28;20641;-84
2024/03/14 12:21:24;;;;;;;3.50;2.35;;;;;;;;;;5094435;28;20200;-83
2024/03/14 12:23:54;;;;;;;3.72;2.22;;;;;;;;;;5094237;28;20293;-84
2024/03/14 12:26:22;;;;;;;3.30;2.03;;;;;;;;;;5094733;28;20556;-84
2024/03/14 12:28:50;;;;;;;3.03;2.38;;;;;;;;;;5093702;28;20225;-85
2024/03/14 12:31:18;;;;;;;4.22;2.63;;;;;;;;;;5094472;28;20304;-85
2024/03/14 12:33:46;;;;;;;2.58;2.30;;;;;;;;;;5094262;28;20205;-84
2024/03/14 12:36:16;;;;;;;3.60;2.30;;;;;;;;;;5094278;28;20201;-85
2024/03/14 12:38:50;;;;;;;4.03;2.40;;;;;;;;;;5094219;28;20671;-85
2024/03/14 12:41:18;;;;;;;3.78;2.38;;;;;;;;;;5094353;28;20216;-85
2024/03/14 12:43:46;;;;;;;4.40;2.60;;;;;;;;;;5093780;28;20193;-84
2024/03/14 12:46:14;;;;;;;4.75;2.55;;;;;;;;;;5094235;28;20206;-84
2024/03/14 12:48:41;;;;;;;4.20;2.78;;;;;;;;;;5093988;28;20631;-84
2024/03/14 12:51:12;;;;;;;4.30;2.80;;;;;;;;;;5094220;28;20221;-85
2024/03/14 12:53:40;;;;;;;2.80;2.50;;;;;;;;;;5094175;28;20582;-85
2024/03/14 12:56:08;;;;;;;3.35;2.70;;;;;;;;;;5093991;28;20598;-85
2024/03/14 12:58:35;;;;;;;5.43;2.30;;;;;;;;;;5093784;28;20197;-84
2024/03/14 13:01:03;;;;;;;3.20;2.28;;;;;;;;;;5093741;28;20654;-85
2024/03/14 13:03:31;;;;;;;3.03;2.10;;;;;;;;;;5094121;28;20332;-85
2024/03/14 13:05:58;;;;;;;2.85;2.05;;;;;;;;;;5094069;28;20236;-85
2024/03/14 13:08:26;;;;;;;3.85;2.05;;;;;;;;;;5093897;28;20716;-85
2024/03/14 13:11:08;;;;;;;2.70;1.80;;;;;;;;;;5094221;28;20301;-86
2024/03/14 13:13:37;;;;;;;3.08;2.08;;;;;;;;;;5108888;28;20680;-86
2024/03/14 13:16:21;;;;;;;3.80;2.17;;;;;;;;;;5094156;28;20247;-85
2024/03/14 13:18:54;;;;;;;5.70;2.60;;;;;;;;;;5094240;28;20206;-85
2024/03/14 13:21:25;;;;;;;4.25;2.08;;;;;;;;;;5094197;28;20197;-85
2024/03/14 13:23:52;;;;;;;2.85;2.10;;;;;;;;;;5094568;28;20192;-85
2024/03/14 13:26:20;;;;;;;2.60;1.88;;;;;;;;;;5093678;28;20281;-85
2024/03/14 13:28:49;;;;;;;3.55;2.00;;;;;;;;;;5094983;28;20258;-84
2024/03/14 13:31:20;;;;;;;3.58;1.85;;;;;;;;;;5097468;28;20194;-85
2024/03/14 13:33:47;;;;;;;3.88;1.52;;;;;;;;;;5098436;28;20620;-85
2024/03/14 13:36:16;;;;;;;3.17;1.52;;;;;;;;;;5097370;28;20292;-86
2024/03/14 13:38:43;;;;;;;2.38;1.63;;;;;;;;;;5097536;28;21222;-86
2024/03/14 13:41:12;;;;;;;2.67;1.30;;;;;;;;;;5096819;28;20198;-86
2024/03/14 13:43:40;;;;;;;2.53;1.38;;;;;;;;;;5097831;28;20267;-86
2024/03/14 13:46:08;;;;;;;2.80;1.70;;;;;;;;;;5097007;28;20194;-85
2024/03/14 13:48:36;;;;;;;6.00;1.73;;;;;;;;;;5097068;28;20198;-85
2024/03/14 13:51:07;;;;;;;3.22;1.52;;;;;;;;;;5097158;28;20194;-85
2024/03/14 13:53:34;;;;;;;4.03;1.33;;;;;;;;;;5097908;28;20220;-86
2024/03/14 13:56:01;;;;;;;2.20;1.10;;;;;;;;;;5092472;28;20236;-85
2024/03/14 13:58:35;;;;;;;3.00;1.38;;;;;;;;;;5093565;28;20226;-86
2024/03/14 14:01:18;;;;;;;3.20;1.40;;;;;;;;;;5093295;28;20183;-85
2024/03/14 14:03:46;;;;;;;2.55;1.35;;;;;;;;;;5093049;28;20199;-85
2024/03/14 14:06:16;;;;;;;2.45;1.60;;;;;;;;;;5093709;28;20194;-86
2024/03/14 14:08:44;;;;;;;3.20;1.42;;;;;;;;;;5093756;28;20206;-86
2024/03/14 14:11:12;;;;;;;2.67;1.48;;;;;;;;;;5093091;28;20198;-85
2024/03/14 14:13:40;;;;;;;7.40;4.53;;;;;;;;;;5093388;28;20555;-87
2024/03/14 14:16:08;;;;;;;10.48;6.45;;;;;;;;;;5093328;28;20687;-86
2024/03/14 14:18:36;;;;;;;3.63;2.00;;;;;;;;;;5093426;28;20198;-85
2024/03/14 14:21:03;;;;;;;3.78;2.35;;;;;;;;;;5093525;28;20194;-85
2024/03/14 14:23:30;;;;;;;4.38;1.95;;;;;;;;;;5093582;28;20226;-87
2024/03/14 14:25:58;;;;;;;4.75;1.77;;;;;;;;;;5092800;28;20273;-86
2024/03/14 14:28:26;;;;;;;2.33;1.65;;;;;;;;;;5076266;28;20202;-85
2024/03/14 14:30:53;;;;;;;3.47;1.67;;;;;;;;;;5093126;28;20182;-86
2024/03/14 14:33:22;;;;;;;3.53;2.00;;;;;;;;;;5092847;28;20261;-86
2024/03/14 14:35:50;;;;;;;4.43;1.75;;;;;;;;;;5093229;28;20221;-86
2024/03/14 14:38:18;;;;;;;2.90;1.90;;;;;;;;;;5093028;28;20207;-86
2024/03/14 14:40:46;;;;;;;2.78;1.88;;;;;;;;;;5092457;28;20198;-86
2024/03/14 14:43:14;;;;;;;3.70;1.90;;;;;;;;;;5092846;28;20202;-85
2024/03/14 14:45:41;;;;;;;3.70;2.35;;;;;;;;;;5092691;28;20222;-86
2024/03/14 14:48:09;;;;;;;5.03;2.60;;;;;;;;;;5093492;28;20202;-86